sensor_id;sensor_type;location;lat;lon;timestamp;P1;durP1;ratioP1;P2;durP2;ratioP2
22260;SDS011;11299;43.202;27.920;2022-07-05T00:02:14;12.10;;;4.50;;
22260;SDS011;11299;43.202;27.920;2022-07-05T00:04:40;9.02;;;4.32;;
22260;SDS011;11299;43.202;27.920;2022-07-05T00:07:06;8.40;;;5.00;;
22260;SDS011;11299;43.202;27.920;2022-07-05T00:09:51;9.07;;;5.72;;
22260;SDS011;11299;43.202;27.920;2022-07-05T00:12:18;10.65;;;5.75;;
22260;SDS011;11299;43.202;27.920;2022-07-05T00:14:45;8.57;;;5.75;;
22260;SDS011;11299;43.202;27.920;2022-07-05T00:17:11;9.00;;;5.07;;
22260;SDS011;11299;43.202;27.920;2022-07-05T00:19:37;8.30;;;5.13;;
22260;SDS011;11299;43.202;27.920;2022-07-05T00:22:03;11.70;;;4.95;;
22260;SDS011;11299;43.202;27.920;2022-07-05T00:24:28;7.88;;;4.35;;
22260;SDS011;11299;43.202;27.920;2022-07-05T00:26:54;6.60;;;3.83;;
22260;SDS011;11299;43.202;27.920;2022-07-05T00:29:20;9.20;;;4.47;;
22260;SDS011;11299;43.202;27.920;2022-07-05T00:31:45;8.63;;;4.35;;
22260;SDS011;11299;43.202;27.920;2022-07-05T00:34:11;8.35;;;4.30;;
22260;SDS011;11299;43.202;27.920;2022-07-05T00:36:36;9.10;;;4.55;;
22260;SDS011;11299;43.202;27.920;2022-07-05T00:39:02;11.60;;;4.85;;
22260;SDS011;11299;43.202;27.920;2022-07-05T00:41:29;9.05;;;4.70;;
22260;SDS011;11299;43.202;27.920;2022-07-05T00:43:56;8.60;;;4.28;;
22260;SDS011;11299;43.202;27.920;2022-07-05T00:46:24;8.88;;;4.78;;
22260;SDS011;11299;43.202;27.920;2022-07-05T00:48:50;9.40;;;4.57;;
22260;SDS011;11299;43.202;27.920;2022-07-05T00:51:16;6.22;;;4.50;;
22260;SDS011;11299;43.202;27.920;2022-07-05T00:53:43;6.68;;;4.70;;
22260;SDS011;11299;43.202;27.920;2022-07-05T00:56:09;14.10;;;5.05;;
22260;SDS011;11299;43.202;27.920;2022-07-05T00:58:35;8.90;;;4.85;;
22260;SDS011;11299;43.202;27.920;2022-07-05T01:01:02;7.70;;;5.07;;
22260;SDS011;11299;43.202;27.920;2022-07-05T01:03:29;9.13;;;4.30;;
22260;SDS011;11299;43.202;27.920;2022-07-05T01:05:55;8.95;;;4.72;;
22260;SDS011;11299;43.202;27.920;2022-07-05T01:08:22;11.45;;;5.45;;
22260;SDS011;11299;43.202;27.920;2022-07-05T01:10:49;9.07;;;5.05;;
22260;SDS011;11299;43.202;27.920;2022-07-05T01:13:16;11.88;;;4.72;;
22260;SDS011;11299;43.202;27.920;2022-07-05T01:15:41;10.50;;;5.30;;
22260;SDS011;11299;43.202;27.920;2022-07-05T01:18:07;12.18;;;5.18;;
22260;SDS011;11299;43.202;27.920;2022-07-05T01:20:35;14.57;;;5.78;;
22260;SDS011;11299;43.202;27.920;2022-07-05T01:23:01;13.35;;;6.65;;
22260;SDS011;11299;43.202;27.920;2022-07-05T01:25:29;10.50;;;6.13;;
22260;SDS011;11299;43.202;27.920;2022-07-05T01:27:56;10.90;;;6.72;;
22260;SDS011;11299;43.202;27.920;2022-07-05T01:30:23;20.30;;;7.07;;
22260;SDS011;11299;43.202;27.920;2022-07-05T01:32:50;8.65;;;6.25;;
22260;SDS011;11299;43.202;27.920;2022-07-05T01:35:16;13.40;;;6.78;;
22260;SDS011;11299;43.202;27.920;2022-07-05T01:37:46;14.23;;;6.75;;
22260;SDS011;11299;43.202;27.920;2022-07-05T01:40:13;13.80;;;7.10;;
22260;SDS011;11299;43.202;27.920;2022-07-05T01:42:39;11.82;;;7.53;;
22260;SDS011;11299;43.202;27.920;2022-07-05T01:45:05;16.02;;;8.13;;
22260;SDS011;11299;43.202;27.920;2022-07-05T01:47:41;18.08;;;9.52;;
22260;SDS011;11299;43.202;27.920;2022-07-05T01:50:12;19.02;;;8.93;;
22260;SDS011;11299;43.202;27.920;2022-07-05T01:52:41;18.05;;;9.93;;
22260;SDS011;11299;43.202;27.920;2022-07-05T01:55:08;16.95;;;9.48;;
22260;SDS011;11299;43.202;27.920;2022-07-05T01:57:34;15.98;;;10.18;;
22260;SDS011;11299;43.202;27.920;2022-07-05T02:00:00;18.92;;;10.02;;
22260;SDS011;11299;43.202;27.920;2022-07-05T02:02:26;17.30;;;9.85;;
22260;SDS011;11299;43.202;27.920;2022-07-05T02:04:52;15.48;;;10.50;;
22260;SDS011;11299;43.202;27.920;2022-07-05T02:07:17;18.15;;;10.52;;
22260;SDS011;11299;43.202;27.920;2022-07-05T02:09:43;21.42;;;11.27;;
22260;SDS011;11299;43.202;27.920;2022-07-05T02:12:08;19.10;;;11.75;;
22260;SDS011;11299;43.202;27.920;2022-07-05T02:14:34;21.98;;;10.98;;
22260;SDS011;11299;43.202;27.920;2022-07-05T02:17:00;18.40;;;10.82;;
22260;SDS011;11299;43.202;27.920;2022-07-05T02:19:26;21.85;;;11.50;;
22260;SDS011;11299;43.202;27.920;2022-07-05T02:21:51;16.55;;;10.27;;
22260;SDS011;11299;43.202;27.920;2022-07-05T02:24:17;17.60;;;11.32;;
22260;SDS011;11299;43.202;27.920;2022-07-05T02:26:43;22.20;;;12.57;;
22260;SDS011;11299;43.202;27.920;2022-07-05T02:29:08;25.13;;;13.90;;
22260;SDS011;11299;43.202;27.920;2022-07-05T02:31:34;24.48;;;13.25;;
22260;SDS011;11299;43.202;27.920;2022-07-05T02:33:59;26.73;;;13.88;;
22260;SDS011;11299;43.202;27.920;2022-07-05T02:36:25;27.02;;;14.63;;
22260;SDS011;11299;43.202;27.920;2022-07-05T02:38:51;19.83;;;13.45;;
22260;SDS011;11299;43.202;27.920;2022-07-05T02:41:17;23.67;;;15.45;;
22260;SDS011;11299;43.202;27.920;2022-07-05T02:43:42;21.52;;;15.15;;
22260;SDS011;11299;43.202;27.920;2022-07-05T02:46:08;24.35;;;17.05;;
22260;SDS011;11299;43.202;27.920;2022-07-05T02:48:35;37.13;;;20.00;;
22260;SDS011;11299;43.202;27.920;2022-07-05T02:51:02;51.03;;;36.08;;
22260;SDS011;11299;43.202;27.920;2022-07-05T02:53:28;40.08;;;29.77;;
22260;SDS011;11299;43.202;27.920;2022-07-05T02:55:53;38.72;;;29.33;;
22260;SDS011;11299;43.202;27.920;2022-07-05T02:58:20;31.02;;;21.58;;
22260;SDS011;11299;43.202;27.920;2022-07-05T03:00:46;30.17;;;20.05;;
22260;SDS011;11299;43.202;27.920;2022-07-05T03:03:12;32.75;;;20.30;;
22260;SDS011;11299;43.202;27.920;2022-07-05T03:05:38;30.77;;;20.52;;
22260;SDS011;11299;43.202;27.920;2022-07-05T03:08:04;32.88;;;19.92;;
22260;SDS011;11299;43.202;27.920;2022-07-05T03:10:30;31.25;;;21.92;;
22260;SDS011;11299;43.202;27.920;2022-07-05T03:12:55;35.00;;;23.98;;
22260;SDS011;11299;43.202;27.920;2022-07-05T03:15:21;34.88;;;23.40;;
22260;SDS011;11299;43.202;27.920;2022-07-05T03:17:46;36.13;;;23.15;;
22260;SDS011;11299;43.202;27.920;2022-07-05T03:20:12;44.00;;;22.17;;
22260;SDS011;11299;43.202;27.920;2022-07-05T03:22:38;31.27;;;20.10;;
22260;SDS011;11299;43.202;27.920;2022-07-05T03:25:03;24.90;;;17.73;;
22260;SDS011;11299;43.202;27.920;2022-07-05T03:27:30;24.50;;;16.38;;
22260;SDS011;11299;43.202;27.920;2022-07-05T03:29:55;26.65;;;14.05;;
22260;SDS011;11299;43.202;27.920;2022-07-05T03:32:21;18.98;;;12.05;;
22260;SDS011;11299;43.202;27.920;2022-07-05T03:34:46;20.95;;;12.48;;
22260;SDS011;11299;43.202;27.920;2022-07-05T03:37:12;23.42;;;12.65;;
22260;SDS011;11299;43.202;27.920;2022-07-05T03:39:37;18.73;;;12.27;;
22260;SDS011;11299;43.202;27.920;2022-07-05T03:42:03;19.02;;;12.50;;
22260;SDS011;11299;43.202;27.920;2022-07-05T03:44:29;18.70;;;11.38;;
22260;SDS011;11299;43.202;27.920;2022-07-05T03:46:57;17.55;;;11.52;;
22260;SDS011;11299;43.202;27.920;2022-07-05T03:49:22;18.90;;;11.98;;
22260;SDS011;11299;43.202;27.920;2022-07-05T03:51:48;20.90;;;11.48;;
22260;SDS011;11299;43.202;27.920;2022-07-05T03:54:13;18.80;;;12.48;;
22260;SDS011;11299;43.202;27.920;2022-07-05T03:56:39;18.25;;;11.52;;
22260;SDS011;11299;43.202;27.920;2022-07-05T03:59:04;18.83;;;12.32;;
22260;SDS011;11299;43.202;27.920;2022-07-05T04:01:30;23.27;;;13.00;;
22260;SDS011;11299;43.202;27.920;2022-07-05T04:03:55;18.38;;;13.35;;
22260;SDS011;11299;43.202;27.920;2022-07-05T04:06:21;19.80;;;13.60;;
22260;SDS011;11299;43.202;27.920;2022-07-05T04:08:46;24.08;;;14.40;;
22260;SDS011;11299;43.202;27.920;2022-07-05T04:11:12;20.38;;;14.30;;
22260;SDS011;11299;43.202;27.920;2022-07-05T04:13:38;19.63;;;14.30;;
22260;SDS011;11299;43.202;27.920;2022-07-05T04:16:05;23.73;;;15.57;;
22260;SDS011;11299;43.202;27.920;2022-07-05T04:18:30;22.75;;;14.48;;
22260;SDS011;11299;43.202;27.920;2022-07-05T04:20:56;18.60;;;13.43;;
22260;SDS011;11299;43.202;27.920;2022-07-05T04:23:21;19.77;;;12.82;;
22260;SDS011;11299;43.202;27.920;2022-07-05T04:25:47;21.30;;;12.80;;
22260;SDS011;11299;43.202;27.920;2022-07-05T04:28:13;15.73;;;11.68;;
22260;SDS011;11299;43.202;27.920;2022-07-05T04:30:38;20.95;;;12.20;;
22260;SDS011;11299;43.202;27.920;2022-07-05T04:33:04;19.15;;;11.48;;
22260;SDS011;11299;43.202;27.920;2022-07-05T04:35:29;14.90;;;10.85;;
22260;SDS011;11299;43.202;27.920;2022-07-05T04:37:55;17.15;;;11.40;;
22260;SDS011;11299;43.202;27.920;2022-07-05T04:40:20;16.80;;;11.55;;
22260;SDS011;11299;43.202;27.920;2022-07-05T04:42:46;18.45;;;12.80;;
22260;SDS011;11299;43.202;27.920;2022-07-05T04:45:11;22.88;;;12.02;;
22260;SDS011;11299;43.202;27.920;2022-07-05T04:47:37;19.33;;;12.25;;
22260;SDS011;11299;43.202;27.920;2022-07-05T04:50:03;15.57;;;11.23;;
22260;SDS011;11299;43.202;27.920;2022-07-05T04:52:29;17.80;;;11.02;;
22260;SDS011;11299;43.202;27.920;2022-07-05T04:54:55;12.68;;;10.30;;
22260;SDS011;11299;43.202;27.920;2022-07-05T04:57:20;20.48;;;10.32;;
22260;SDS011;11299;43.202;27.920;2022-07-05T04:59:46;16.05;;;10.55;;
22260;SDS011;11299;43.202;27.920;2022-07-05T05:02:12;17.83;;;10.77;;
22260;SDS011;11299;43.202;27.920;2022-07-05T05:04:37;25.38;;;11.48;;
22260;SDS011;11299;43.202;27.920;2022-07-05T05:07:03;16.95;;;11.35;;
22260;SDS011;11299;43.202;27.920;2022-07-05T05:09:29;22.10;;;10.40;;
22260;SDS011;11299;43.202;27.920;2022-07-05T05:11:54;21.45;;;11.98;;
22260;SDS011;11299;43.202;27.920;2022-07-05T05:14:20;18.63;;;11.75;;
22260;SDS011;11299;43.202;27.920;2022-07-05T05:16:45;16.60;;;10.52;;
22260;SDS011;11299;43.202;27.920;2022-07-05T05:19:11;21.55;;;10.45;;
22260;SDS011;11299;43.202;27.920;2022-07-05T05:21:36;18.95;;;10.25;;
22260;SDS011;11299;43.202;27.920;2022-07-05T05:24:02;22.80;;;10.85;;
22260;SDS011;11299;43.202;27.920;2022-07-05T05:26:28;24.00;;;10.80;;
22260;SDS011;11299;43.202;27.920;2022-07-05T05:28:53;14.63;;;9.88;;
22260;SDS011;11299;43.202;27.920;2022-07-05T05:31:19;21.58;;;10.40;;
22260;SDS011;11299;43.202;27.920;2022-07-05T05:33:45;21.10;;;10.77;;
22260;SDS011;11299;43.202;27.920;2022-07-05T05:36:10;19.52;;;10.00;;
22260;SDS011;11299;43.202;27.920;2022-07-05T05:38:36;23.25;;;10.55;;
22260;SDS011;11299;43.202;27.920;2022-07-05T05:41:02;19.92;;;9.52;;
22260;SDS011;11299;43.202;27.920;2022-07-05T05:43:28;31.40;;;10.70;;
22260;SDS011;11299;43.202;27.920;2022-07-05T05:45:53;26.52;;;12.30;;
22260;SDS011;11299;43.202;27.920;2022-07-05T05:48:19;22.48;;;12.05;;
22260;SDS011;11299;43.202;27.920;2022-07-05T05:50:45;22.92;;;12.95;;
22260;SDS011;11299;43.202;27.920;2022-07-05T05:53:11;23.45;;;12.45;;
22260;SDS011;11299;43.202;27.920;2022-07-05T05:55:37;18.08;;;11.65;;
22260;SDS011;11299;43.202;27.920;2022-07-05T06:00:48;20.58;;;11.23;;
22260;SDS011;11299;43.202;27.920;2022-07-05T06:03:20;21.70;;;10.40;;
22260;SDS011;11299;43.202;27.920;2022-07-05T06:05:47;14.45;;;9.00;;
22260;SDS011;11299;43.202;27.920;2022-07-05T06:08:13;16.88;;;8.18;;
22260;SDS011;11299;43.202;27.920;2022-07-05T06:10:39;24.85;;;8.05;;
22260;SDS011;11299;43.202;27.920;2022-07-05T06:13:05;11.63;;;5.65;;
22260;SDS011;11299;43.202;27.920;2022-07-05T06:15:32;14.40;;;5.30;;
22260;SDS011;11299;43.202;27.920;2022-07-05T06:17:59;9.93;;;3.00;;
22260;SDS011;11299;43.202;27.920;2022-07-05T06:20:25;9.57;;;2.97;;
22260;SDS011;11299;43.202;27.920;2022-07-05T06:22:53;11.73;;;3.42;;
22260;SDS011;11299;43.202;27.920;2022-07-05T06:25:20;6.55;;;3.13;;
22260;SDS011;11299;43.202;27.920;2022-07-05T06:27:46;5.28;;;3.15;;
22260;SDS011;11299;43.202;27.920;2022-07-05T06:30:15;5.10;;;2.78;;
22260;SDS011;11299;43.202;27.920;2022-07-05T06:32:42;9.52;;;2.65;;
22260;SDS011;11299;43.202;27.920;2022-07-05T06:35:09;9.25;;;2.88;;
22260;SDS011;11299;43.202;27.920;2022-07-05T06:40:10;3.72;;;2.75;;
22260;SDS011;11299;43.202;27.920;2022-07-05T06:42:37;5.90;;;2.53;;
22260;SDS011;11299;43.202;27.920;2022-07-05T06:45:07;5.63;;;2.67;;
22260;SDS011;11299;43.202;27.920;2022-07-05T06:47:33;7.82;;;3.53;;
22260;SDS011;11299;43.202;27.920;2022-07-05T06:49:59;7.10;;;3.17;;
22260;SDS011;11299;43.202;27.920;2022-07-05T06:52:24;6.78;;;3.63;;
22260;SDS011;11299;43.202;27.920;2022-07-05T06:54:50;8.88;;;3.53;;
22260;SDS011;11299;43.202;27.920;2022-07-05T06:57:22;11.32;;;3.72;;
22260;SDS011;11299;43.202;27.920;2022-07-05T06:59:48;9.45;;;3.67;;
22260;SDS011;11299;43.202;27.920;2022-07-05T07:02:15;4.00;;;2.30;;
22260;SDS011;11299;43.202;27.920;2022-07-05T07:04:40;4.18;;;2.67;;
22260;SDS011;11299;43.202;27.920;2022-07-05T07:07:06;8.50;;;3.03;;
22260;SDS011;11299;43.202;27.920;2022-07-05T07:09:55;5.30;;;3.20;;
22260;SDS011;11299;43.202;27.920;2022-07-05T07:12:21;9.13;;;3.10;;
22260;SDS011;11299;43.202;27.920;2022-07-05T07:14:47;5.75;;;3.22;;
22260;SDS011;11299;43.202;27.920;2022-07-05T07:17:12;8.10;;;3.05;;
22260;SDS011;11299;43.202;27.920;2022-07-05T07:19:38;6.90;;;2.90;;
22260;SDS011;11299;43.202;27.920;2022-07-05T07:22:03;6.53;;;3.25;;
22260;SDS011;11299;43.202;27.920;2022-07-05T07:24:29;6.40;;;3.13;;
22260;SDS011;11299;43.202;27.920;2022-07-05T07:26:54;7.63;;;4.30;;
22260;SDS011;11299;43.202;27.920;2022-07-05T07:29:33;8.38;;;4.38;;
22260;SDS011;11299;43.202;27.920;2022-07-05T07:32:00;12.95;;;4.93;;
22260;SDS011;11299;43.202;27.920;2022-07-05T07:34:29;6.40;;;3.60;;
22260;SDS011;11299;43.202;27.920;2022-07-05T07:36:56;12.55;;;4.50;;
22260;SDS011;11299;43.202;27.920;2022-07-05T07:39:23;6.55;;;3.55;;
22260;SDS011;11299;43.202;27.920;2022-07-05T07:41:49;9.35;;;4.07;;
22260;SDS011;11299;43.202;27.920;2022-07-05T07:44:15;9.45;;;4.40;;
22260;SDS011;11299;43.202;27.920;2022-07-05T07:46:41;11.38;;;4.00;;
22260;SDS011;11299;43.202;27.920;2022-07-05T07:49:07;11.02;;;3.60;;
22260;SDS011;11299;43.202;27.920;2022-07-05T07:51:33;7.13;;;3.90;;
22260;SDS011;11299;43.202;27.920;2022-07-05T07:53:59;5.90;;;4.30;;
22260;SDS011;11299;43.202;27.920;2022-07-05T07:56:25;7.15;;;4.38;;
22260;SDS011;11299;43.202;27.920;2022-07-05T07:58:51;7.25;;;4.03;;
22260;SDS011;11299;43.202;27.920;2022-07-05T08:01:16;6.03;;;4.03;;
22260;SDS011;11299;43.202;27.920;2022-07-05T08:03:42;8.05;;;4.05;;
22260;SDS011;11299;43.202;27.920;2022-07-05T08:06:09;50.67;;;11.65;;
22260;SDS011;11299;43.202;27.920;2022-07-05T08:08:39;8.25;;;4.28;;
22260;SDS011;11299;43.202;27.920;2022-07-05T08:11:07;5.15;;;3.55;;
22260;SDS011;11299;43.202;27.920;2022-07-05T08:13:34;5.70;;;3.65;;
22260;SDS011;11299;43.202;27.920;2022-07-05T08:16:00;6.68;;;3.58;;
22260;SDS011;11299;43.202;27.920;2022-07-05T08:18:26;9.80;;;4.00;;
22260;SDS011;11299;43.202;27.920;2022-07-05T08:21:10;13.30;;;4.47;;
22260;SDS011;11299;43.202;27.920;2022-07-05T08:23:54;5.03;;;3.50;;
22260;SDS011;11299;43.202;27.920;2022-07-05T08:26:20;8.82;;;3.50;;
22260;SDS011;11299;43.202;27.920;2022-07-05T08:28:46;8.90;;;3.60;;
22260;SDS011;11299;43.202;27.920;2022-07-05T08:31:11;10.35;;;4.50;;
22260;SDS011;11299;43.202;27.920;2022-07-05T08:33:37;18.75;;;5.20;;
22260;SDS011;11299;43.202;27.920;2022-07-05T08:36:02;7.47;;;3.30;;
22260;SDS011;11299;43.202;27.920;2022-07-05T08:38:28;5.75;;;3.95;;
22260;SDS011;11299;43.202;27.920;2022-07-05T08:40:54;6.15;;;3.05;;
22260;SDS011;11299;43.202;27.920;2022-07-05T08:43:21;5.63;;;2.90;;
22260;SDS011;11299;43.202;27.920;2022-07-05T08:45:49;9.77;;;3.17;;
22260;SDS011;11299;43.202;27.920;2022-07-05T08:48:15;7.03;;;3.60;;
22260;SDS011;11299;43.202;27.920;2022-07-05T08:50:42;6.10;;;2.95;;
22260;SDS011;11299;43.202;27.920;2022-07-05T08:53:09;6.07;;;2.90;;
22260;SDS011;11299;43.202;27.920;2022-07-05T08:55:35;5.32;;;2.60;;
22260;SDS011;11299;43.202;27.920;2022-07-05T08:58:01;9.73;;;2.97;;
22260;SDS011;11299;43.202;27.920;2022-07-05T09:00:27;7.88;;;2.90;;
22260;SDS011;11299;43.202;27.920;2022-07-05T09:02:53;8.77;;;2.83;;
22260;SDS011;11299;43.202;27.920;2022-07-05T09:05:19;6.97;;;2.85;;
22260;SDS011;11299;43.202;27.920;2022-07-05T09:08:05;3.63;;;2.55;;
22260;SDS011;11299;43.202;27.920;2022-07-05T09:10:36;17.63;;;10.20;;
22260;SDS011;11299;43.202;27.920;2022-07-05T09:13:03;7.20;;;3.50;;
22260;SDS011;11299;43.202;27.920;2022-07-05T09:15:28;7.20;;;2.88;;
22260;SDS011;11299;43.202;27.920;2022-07-05T09:17:55;8.57;;;2.80;;
22260;SDS011;11299;43.202;27.920;2022-07-05T09:20:20;6.15;;;3.00;;
22260;SDS011;11299;43.202;27.920;2022-07-05T09:25:23;10.32;;;3.60;;
22260;SDS011;11299;43.202;27.920;2022-07-05T09:27:53;6.75;;;3.40;;
22260;SDS011;11299;43.202;27.920;2022-07-05T09:33:03;6.15;;;2.83;;
22260;SDS011;11299;43.202;27.920;2022-07-05T09:35:31;5.68;;;2.90;;
22260;SDS011;11299;43.202;27.920;2022-07-05T09:37:58;7.68;;;3.58;;
22260;SDS011;11299;43.202;27.920;2022-07-05T09:40:23;6.82;;;2.67;;
22260;SDS011;11299;43.202;27.920;2022-07-05T09:42:49;3.65;;;2.15;;
22260;SDS011;11299;43.202;27.920;2022-07-05T09:45:24;8.68;;;2.58;;
22260;SDS011;11299;43.202;27.920;2022-07-05T09:47:50;6.70;;;3.15;;
22260;SDS011;11299;43.202;27.920;2022-07-05T09:50:32;4.53;;;2.60;;
22260;SDS011;11299;43.202;27.920;2022-07-05T09:52:58;6.90;;;4.53;;
22260;SDS011;11299;43.202;27.920;2022-07-05T09:55:24;3.35;;;2.58;;
22260;SDS011;11299;43.202;27.920;2022-07-05T09:57:49;7.15;;;2.80;;
22260;SDS011;11299;43.202;27.920;2022-07-05T10:00:22;6.30;;;2.83;;
22260;SDS011;11299;43.202;27.920;2022-07-05T10:02:49;7.05;;;2.70;;
22260;SDS011;11299;43.202;27.920;2022-07-05T10:05:29;4.60;;;2.45;;
22260;SDS011;11299;43.202;27.920;2022-07-05T10:07:56;9.57;;;3.05;;
22260;SDS011;11299;43.202;27.920;2022-07-05T10:10:27;7.05;;;2.40;;
22260;SDS011;11299;43.202;27.920;2022-07-05T10:12:58;6.35;;;2.80;;
22260;SDS011;11299;43.202;27.920;2022-07-05T10:15:26;5.55;;;2.33;;
22260;SDS011;11299;43.202;27.920;2022-07-05T10:17:58;10.90;;;3.53;;
22260;SDS011;11299;43.202;27.920;2022-07-05T10:23:05;7.68;;;2.78;;
22260;SDS011;11299;43.202;27.920;2022-07-05T10:25:31;5.38;;;2.80;;
22260;SDS011;11299;43.202;27.920;2022-07-05T10:27:57;7.25;;;2.50;;
22260;SDS011;11299;43.202;27.920;2022-07-05T10:30:24;19.25;;;6.05;;
22260;SDS011;11299;43.202;27.920;2022-07-05T10:32:50;7.78;;;3.50;;
22260;SDS011;11299;43.202;27.920;2022-07-05T10:35:16;5.32;;;3.50;;
22260;SDS011;11299;43.202;27.920;2022-07-05T10:37:43;3.10;;;2.53;;
22260;SDS011;11299;43.202;27.920;2022-07-05T10:40:09;8.02;;;2.20;;
22260;SDS011;11299;43.202;27.920;2022-07-05T10:42:40;7.05;;;2.25;;
22260;SDS011;11299;43.202;27.920;2022-07-05T10:53:28;12.40;;;2.70;;
22260;SDS011;11299;43.202;27.920;2022-07-05T10:58:23;4.90;;;2.38;;
22260;SDS011;11299;43.202;27.920;2022-07-05T11:01:31;8.15;;;2.33;;
22260;SDS011;11299;43.202;27.920;2022-07-05T11:06:06;10.82;;;2.75;;
22260;SDS011;11299;43.202;27.920;2022-07-05T11:11:26;8.05;;;2.63;;
22260;SDS011;11299;43.202;27.920;2022-07-05T11:13:53;5.43;;;2.45;;
22260;SDS011;11299;43.202;27.920;2022-07-05T11:18:49;7.22;;;2.28;;
22260;SDS011;11299;43.202;27.920;2022-07-05T11:21:20;7.35;;;2.72;;
22260;SDS011;11299;43.202;27.920;2022-07-05T11:23:47;5.40;;;2.40;;
22260;SDS011;11299;43.202;27.920;2022-07-05T11:26:13;5.85;;;2.03;;
22260;SDS011;11299;43.202;27.920;2022-07-05T11:28:42;5.22;;;2.40;;
22260;SDS011;11299;43.202;27.920;2022-07-05T11:31:09;4.25;;;2.60;;
22260;SDS011;11299;43.202;27.920;2022-07-05T11:33:39;7.18;;;2.45;;
22260;SDS011;11299;43.202;27.920;2022-07-05T11:36:25;3.65;;;2.67;;
22260;SDS011;11299;43.202;27.920;2022-07-05T11:41:48;7.13;;;2.17;;
22260;SDS011;11299;43.202;27.920;2022-07-05T11:44:15;4.13;;;2.00;;
22260;SDS011;11299;43.202;27.920;2022-07-05T11:46:41;6.82;;;2.03;;
22260;SDS011;11299;43.202;27.920;2022-07-05T11:49:07;6.78;;;2.15;;
22260;SDS011;11299;43.202;27.920;2022-07-05T11:51:33;5.07;;;2.03;;
22260;SDS011;11299;43.202;27.920;2022-07-05T11:53:58;6.15;;;2.60;;
22260;SDS011;11299;43.202;27.920;2022-07-05T11:56:26;3.45;;;2.30;;
22260;SDS011;11299;43.202;27.920;2022-07-05T11:58:52;5.35;;;2.35;;
22260;SDS011;11299;43.202;27.920;2022-07-05T12:01:18;4.38;;;1.98;;
22260;SDS011;11299;43.202;27.920;2022-07-05T12:03:53;8.18;;;2.50;;
22260;SDS011;11299;43.202;27.920;2022-07-05T12:06:20;4.43;;;2.55;;
22260;SDS011;11299;43.202;27.920;2022-07-05T12:08:46;5.63;;;2.30;;
22260;SDS011;11299;43.202;27.920;2022-07-05T12:11:12;9.25;;;2.05;;
22260;SDS011;11299;43.202;27.920;2022-07-05T12:13:56;8.07;;;2.08;;
22260;SDS011;11299;43.202;27.920;2022-07-05T12:16:22;5.75;;;1.80;;
22260;SDS011;11299;43.202;27.920;2022-07-05T12:18:54;5.90;;;2.20;;
22260;SDS011;11299;43.202;27.920;2022-07-05T12:21:21;3.83;;;1.65;;
22260;SDS011;11299;43.202;27.920;2022-07-05T12:23:49;6.78;;;2.35;;
22260;SDS011;11299;43.202;27.920;2022-07-05T12:26:16;4.68;;;1.52;;
22260;SDS011;11299;43.202;27.920;2022-07-05T12:28:43;6.30;;;1.85;;
22260;SDS011;11299;43.202;27.920;2022-07-05T12:31:16;5.68;;;1.85;;
22260;SDS011;11299;43.202;27.920;2022-07-05T12:33:49;7.65;;;2.92;;
22260;SDS011;11299;43.202;27.920;2022-07-05T12:36:17;5.47;;;1.73;;
22260;SDS011;11299;43.202;27.920;2022-07-05T12:38:44;6.75;;;1.80;;
22260;SDS011;11299;43.202;27.920;2022-07-05T12:41:10;4.95;;;1.80;;
22260;SDS011;11299;43.202;27.920;2022-07-05T12:43:49;6.50;;;2.08;;
22260;SDS011;11299;43.202;27.920;2022-07-05T12:46:15;5.53;;;1.48;;
22260;SDS011;11299;43.202;27.920;2022-07-05T12:48:40;3.63;;;1.60;;
22260;SDS011;11299;43.202;27.920;2022-07-05T12:51:07;4.20;;;1.83;;
22260;SDS011;11299;43.202;27.920;2022-07-05T12:53:33;3.70;;;1.80;;
22260;SDS011;11299;43.202;27.920;2022-07-05T12:56:22;3.53;;;1.60;;
22260;SDS011;11299;43.202;27.920;2022-07-05T12:59:07;9.23;;;2.08;;
22260;SDS011;11299;43.202;27.920;2022-07-05T13:01:36;3.53;;;1.90;;
22260;SDS011;11299;43.202;27.920;2022-07-05T13:06:45;6.57;;;1.67;;
22260;SDS011;11299;43.202;27.920;2022-07-05T13:09:16;9.10;;;2.13;;
22260;SDS011;11299;43.202;27.920;2022-07-05T13:12:06;3.53;;;1.63;;
22260;SDS011;11299;43.202;27.920;2022-07-05T13:14:38;7.85;;;1.80;;
22260;SDS011;11299;43.202;27.920;2022-07-05T13:17:06;6.30;;;1.40;;
22260;SDS011;11299;43.202;27.920;2022-07-05T13:19:32;6.43;;;1.88;;
22260;SDS011;11299;43.202;27.920;2022-07-05T13:21:58;2.05;;;1.65;;
22260;SDS011;11299;43.202;27.920;2022-07-05T13:24:23;3.67;;;1.77;;
22260;SDS011;11299;43.202;27.920;2022-07-05T13:26:49;3.20;;;1.70;;
22260;SDS011;11299;43.202;27.920;2022-07-05T13:29:14;6.20;;;1.65;;
22260;SDS011;11299;43.202;27.920;2022-07-05T13:31:40;3.67;;;1.40;;
22260;SDS011;11299;43.202;27.920;2022-07-05T13:34:06;7.03;;;1.60;;
22260;SDS011;11299;43.202;27.920;2022-07-05T13:36:32;5.78;;;1.80;;
22260;SDS011;11299;43.202;27.920;2022-07-05T13:38:57;2.88;;;1.50;;
22260;SDS011;11299;43.202;27.920;2022-07-05T13:41:23;6.68;;;2.30;;
22260;SDS011;11299;43.202;27.920;2022-07-05T13:43:49;7.40;;;1.80;;
22260;SDS011;11299;43.202;27.920;2022-07-05T13:46:14;6.68;;;1.65;;
22260;SDS011;11299;43.202;27.920;2022-07-05T13:48:40;4.88;;;1.35;;
22260;SDS011;11299;43.202;27.920;2022-07-05T13:51:06;4.32;;;1.88;;
22260;SDS011;11299;43.202;27.920;2022-07-05T13:53:32;5.50;;;1.67;;
22260;SDS011;11299;43.202;27.920;2022-07-05T13:55:57;2.63;;;1.55;;
22260;SDS011;11299;43.202;27.920;2022-07-05T13:58:23;5.60;;;1.98;;
22260;SDS011;11299;43.202;27.920;2022-07-05T14:00:49;9.07;;;1.80;;
22260;SDS011;11299;43.202;27.920;2022-07-05T14:03:15;7.05;;;1.95;;
22260;SDS011;11299;43.202;27.920;2022-07-05T14:05:41;9.60;;;1.80;;
22260;SDS011;11299;43.202;27.920;2022-07-05T14:08:09;7.03;;;1.95;;
22260;SDS011;11299;43.202;27.920;2022-07-05T14:10:35;4.13;;;1.70;;
22260;SDS011;11299;43.202;27.920;2022-07-05T14:13:01;7.47;;;1.83;;
22260;SDS011;11299;43.202;27.920;2022-07-05T14:15:27;6.35;;;2.00;;
22260;SDS011;11299;43.202;27.920;2022-07-05T14:17:52;4.72;;;1.80;;
22260;SDS011;11299;43.202;27.920;2022-07-05T14:20:18;3.20;;;1.63;;
22260;SDS011;11299;43.202;27.920;2022-07-05T14:22:43;3.00;;;1.55;;
22260;SDS011;11299;43.202;27.920;2022-07-05T14:25:09;7.30;;;1.98;;
22260;SDS011;11299;43.202;27.920;2022-07-05T14:27:34;6.38;;;1.52;;
22260;SDS011;11299;43.202;27.920;2022-07-05T14:30:00;5.53;;;1.75;;
22260;SDS011;11299;43.202;27.920;2022-07-05T14:32:27;6.00;;;2.55;;
22260;SDS011;11299;43.202;27.920;2022-07-05T14:34:53;8.25;;;2.85;;
22260;SDS011;11299;43.202;27.920;2022-07-05T14:37:18;8.82;;;3.97;;
22260;SDS011;11299;43.202;27.920;2022-07-05T14:39:46;10.15;;;4.38;;
22260;SDS011;11299;43.202;27.920;2022-07-05T14:42:12;7.90;;;5.20;;
22260;SDS011;11299;43.202;27.920;2022-07-05T14:44:37;4.22;;;2.53;;
22260;SDS011;11299;43.202;27.920;2022-07-05T14:47:03;6.40;;;2.30;;
22260;SDS011;11299;43.202;27.920;2022-07-05T14:49:28;5.60;;;2.72;;
22260;SDS011;11299;43.202;27.920;2022-07-05T14:51:54;8.55;;;2.35;;
22260;SDS011;11299;43.202;27.920;2022-07-05T14:54:20;5.22;;;2.22;;
22260;SDS011;11299;43.202;27.920;2022-07-05T14:56:46;5.45;;;1.70;;
22260;SDS011;11299;43.202;27.920;2022-07-05T14:59:11;3.88;;;1.80;;
22260;SDS011;11299;43.202;27.920;2022-07-05T15:01:37;7.38;;;1.85;;
22260;SDS011;11299;43.202;27.920;2022-07-05T15:04:03;5.57;;;2.67;;